Time;durP1;ratioP1;P1;durP2;ratioP2;P2;SDS_P1;SDS_P2;PMS_P1;PMS_P2;Temp;Humidity;BMP_temperature;BMP_pressure;BME280_temperature;BME280_humidity;BME280_pressure;Samples;Min_cycle;Max_cycle;Signal;HPM_P1;HPM_P2
2023/05/08 00:00:28;;;;;;;5.57;5.07;;;;;;;11.08;100.00;93257.72;2605828;22;20011;-84
2023/05/08 00:01:44;;;;;;;7.85;5.28;;;;;;;11.00;100.00;93261.72;2592749;22;20019;-83
2023/05/08 00:02:53;;;;;;;6.15;5.45;;;;;;;10.98;100.00;93257.97;2596169;22;20013;-84
2023/05/08 00:04:02;;;;;;;5.10;4.65;;;;;;;10.99;100.00;93256.78;2582500;22;20028;-85
2023/05/08 00:05:09;;;;;;;7.87;4.77;;;;;;;10.99;100.00;93259.47;2584743;22;20494;-85
2023/05/08 00:06:38;;;;;;;5.40;4.90;;;;;;;10.98;100.00;93260.63;2598953;22;20401;-82
2023/05/08 00:07:49;;;;;;;5.20;4.80;;;;;;;11.00;100.00;93259.03;2585919;22;20007;-82
2023/05/08 00:08:58;;;;;;;6.20;5.70;;;;;;;11.02;100.00;93261.31;2595814;22;19999;-82
2023/05/08 00:10:11;;;;;;;5.57;5.13;;;;;;;11.02;100.00;93254.03;2593595;22;20398;-85
2023/05/08 00:11:20;;;;;;;6.50;5.00;;;;;;;10.96;100.00;93261.03;2582177;22;20295;-83
2023/05/08 00:12:29;;;;;;;6.60;4.88;;;;;;;11.00;100.00;93267.06;2584112;22;20004;-82
2023/05/08 00:13:36;;;;;;;5.15;4.75;;;;;;;10.99;100.00;93257.53;2593395;22;20354;-83
2023/05/08 00:14:46;;;;;;;6.90;4.80;;;;;;;10.98;100.00;93257.97;2593330;22;20415;-82
2023/05/08 00:15:55;;;;;;;5.53;4.95;;;;;;;10.97;100.00;93253.75;2582335;22;20482;-83
2023/05/08 00:17:15;;;;;;;8.13;5.05;;;;;;;10.97;100.00;93257.19;2575368;22;20123;-82
2023/05/08 00:18:25;;;;;;;7.72;5.50;;;;;;;10.91;100.00;93258.09;2586198;22;20733;-84
2023/05/08 00:19:44;;;;;;;5.13;4.68;;;;;;;10.94;100.00;93254.59;2583982;22;20004;-81
2023/05/08 00:20:51;;;;;;;5.45;4.95;;;;;;;10.92;100.00;93246.97;2596447;22;20004;-83
2023/05/08 00:22:20;;;;;;;5.53;4.95;;;;;;;10.92;100.00;93246.22;2597768;22;20404;-85
2023/05/08 00:23:28;;;;;;;5.32;4.82;;;;;;;10.91;100.00;93250.81;2592753;22;20003;-83
2023/05/08 00:24:36;;;;;;;5.32;4.53;;;;;;;10.92;100.00;93254.25;2570913;22;20063;-82
2023/05/08 00:25:45;;;;;;;5.30;4.32;;;;;;;10.90;100.00;93252.00;2592900;22;20007;-85
2023/05/08 00:26:55;;;;;;;6.60;4.75;;;;;;;10.89;100.00;93250.50;2594476;22;19999;-86
2023/05/08 00:28:04;;;;;;;8.32;4.70;;;;;;;10.93;100.00;93255.75;2582412;22;20004;-83
2023/05/08 00:29:13;;;;;;;5.93;4.90;;;;;;;10.92;100.00;93254.25;2582068;22;20016;-82
2023/05/08 00:30:22;;;;;;;4.65;4.30;;;;;;;10.90;100.00;93256.59;2571205;22;20004;-83
2023/05/08 00:31:44;;;;;;;5.03;4.63;;;;;;;10.87;100.00;93258.16;2577304;22;20000;-83
2023/05/08 00:32:53;;;;;;;5.22;4.25;;;;;;;10.95;100.00;93253.44;2582210;22;20004;-82
2023/05/08 00:34:02;;;;;;;8.25;4.88;;;;;;;10.96;100.00;93244.97;2584795;22;20004;-82
2023/05/08 00:35:09;;;;;;;6.38;4.88;;;;;;;10.88;100.00;93245.53;2584286;22;20027;-83
2023/05/08 00:36:17;;;;;;;4.25;3.95;;;;;;;10.89;100.00;93255.06;2571729;22;20352;-84
2023/05/08 00:37:25;;;;;;;5.38;4.88;;;;;;;10.90;100.00;93256.59;2571780;22;20001;-82
2023/05/08 00:38:38;;;;;;;6.70;4.57;;;;;;;10.91;100.00;93258.09;2571459;22;20009;-82
2023/05/08 00:39:45;;;;;;;4.85;4.45;;;;;;;10.91;100.00;93256.16;2574214;22;20000;-85
2023/05/08 00:40:53;;;;;;;21.00;4.85;;;;;;;10.91;100.00;93261.53;2571576;22;20000;-83
2023/05/08 00:42:21;;;;;;;5.28;4.35;;;;;;;10.91;100.00;93258.09;2592142;22;20007;-85
2023/05/08 00:43:30;;;;;;;4.70;4.35;;;;;;;10.90;100.00;93257.34;2599745;22;20006;-84
2023/05/08 00:44:40;;;;;;;8.80;5.03;;;;;;;10.89;100.00;93257.75;2594132;22;20003;-83
2023/05/08 00:45:49;;;;;;;6.03;5.33;;;;;;;10.83;100.00;93252.13;2584657;22;20000;-82
2023/05/08 00:46:58;;;;;;;4.75;4.35;;;;;;;10.87;100.00;93262.75;2595408;22;20382;-83
2023/05/08 00:48:08;;;;;;;7.45;4.43;;;;;;;10.83;100.00;93263.59;2596635;22;20012;-84
2023/05/08 00:49:17;;;;;;;5.35;4.35;;;;;;;10.86;100.00;93255.91;2582773;22;20061;-84
2023/05/08 00:50:27;;;;;;;7.97;4.43;;;;;;;10.87;100.00;93255.50;2592911;22;20007;-85
2023/05/08 00:51:33;;;;;;;;;;;;;;;10.88;100.00;93251.66;2585413;22;20015;-84
2023/05/08 00:52:42;;;;;;;7.20;4.05;;;;;;;10.87;100.00;93260.84;2581669;22;19924;-84
2023/05/08 00:53:52;;;;;;;4.63;4.23;;;;;;;10.86;100.00;93255.91;2571563;22;20198;-83
2023/05/08 00:55:03;;;;;;;4.65;3.95;;;;;;;10.88;100.00;93256.25;2595955;22;20774;-84
2023/05/08 00:56:16;;;;;;;6.60;4.28;;;;;;;10.92;100.00;93260.34;2593496;22;20086;-83
2023/05/08 00:57:25;;;;;;;5.10;4.60;;;;;;;10.92;100.00;93264.94;2595918;22;20036;-83
2023/05/08 00:58:33;;;;;;;5.78;4.70;;;;;;;10.88;100.00;93259.66;2593884;22;20011;-83
2023/05/08 00:59:42;;;;;;;5.40;4.38;;;;;;;10.90;100.00;93261.94;2595487;22;20050;-82
2023/05/08 01:00:55;;;;;;;5.67;4.37;;;;;;;10.94;100.00;93271.41;2582318;22;20004;-82
2023/05/08 01:02:07;;;;;;;7.28;4.20;;;;;;;10.92;100.00;93263.03;2596711;22;20517;-84
2023/05/08 01:03:17;;;;;;;5.18;3.80;;;;;;;10.91;100.00;93268.78;2595084;22;20015;-83
2023/05/08 01:04:29;;;;;;;4.85;4.40;;;;;;;11.01;100.00;93267.81;2595548;22;20011;-83
2023/05/08 01:05:40;;;;;;;4.88;4.40;;;;;;;10.99;100.00;93268.22;2593506;22;20007;-83
2023/05/08 01:06:56;;;;;;;5.40;4.10;;;;;;;10.96;100.00;93263.69;2584533;22;20038;-84
2023/05/08 01:08:05;;;;;;;7.13;4.38;;;;;;;10.88;100.00;93261.59;2573402;22;20035;-84
2023/05/08 01:09:14;;;;;;;5.20;4.30;;;;;;;10.93;100.00;93269.13;2584119;22;20079;-82
2023/05/08 01:10:23;;;;;;;4.72;4.32;;;;;;;10.92;100.00;93262.28;2593263;22;20327;-82
2023/05/08 01:12:04;;;;;;;5.47;4.15;;;;;;;10.84;100.00;93267.00;2583196;22;20594;-84
2023/05/08 01:13:26;;;;;;;4.57;4.18;;;;;;;10.77;100.00;93264.50;2597242;22;20026;-83
2023/05/08 01:15:06;;;;;;;5.25;4.50;;;;;;;10.83;100.00;93270.84;2598443;22;19999;-82
2023/05/08 01:16:29;;;;;;;4.60;4.30;;;;;;;10.77;100.00;93269.84;2590276;22;20014;-84
2023/05/08 01:17:45;;;;;;;4.03;3.72;;;;;;;10.80;100.00;93274.38;2578370;22;20070;-82
2023/05/08 01:19:08;;;;;;;4.20;3.90;;;;;;;10.80;100.00;93279.72;2575510;22;20525;-85
2023/05/08 01:20:24;;;;;;;4.00;3.70;;;;;;;10.77;100.00;93275.94;2578337;22;20003;-83
2023/05/08 01:21:56;;;;;;;6.32;3.83;;;;;;;10.85;100.00;93281.91;2581367;22;20007;-84
2023/05/08 01:23:26;;;;;;;4.20;3.90;;;;;;;10.80;100.00;93282.41;2578359;22;20007;-83
2023/05/08 01:24:59;;;;;;;7.18;3.78;;;;;;;10.80;100.00;93274.38;2581377;22;20070;-82
2023/05/08 01:26:49;;;;;;;5.03;3.60;;;;;;;10.81;100.00;93281.22;2594653;22;20425;-84
2023/05/08 01:28:30;;;;;;;5.93;3.47;;;;;;;10.83;100.00;93286.91;2590717;22;20007;-83
2023/05/08 01:29:56;;;;;;;3.60;3.30;;;;;;;10.78;100.00;93280.13;2576089;23;20016;-84
2023/05/08 01:31:32;;;;;;;4.38;3.80;;;;;;;10.76;100.00;93284.38;2578742;22;20170;-83
2023/05/08 01:32:58;;;;;;;4.57;3.42;;;;;;;10.77;100.00;93283.22;2576628;23;20015;-83
2023/05/08 01:34:13;;;;;;;4.43;4.13;;;;;;;10.79;100.00;93278.94;2579917;22;20046;-84
2023/05/08 01:35:46;;;;;;;4.13;3.83;;;;;;;10.81;100.00;93281.22;2581482;23;20010;-83
2023/05/08 01:37:02;;;;;;;4.38;4.07;;;;;;;10.79;100.00;93283.53;2575215;23;20019;-82
2023/05/08 01:38:14;;;;;;;4.25;3.85;;;;;;;10.82;100.00;93278.13;2586310;22;20387;-83
2023/05/08 01:39:30;;;;;;;4.13;3.72;;;;;;;10.80;100.00;93282.41;2580800;23;20008;-85
2023/05/08 01:40:40;;;;;;;4.15;3.85;;;;;;;10.80;100.00;93277.03;2577080;22;20004;-83
2023/05/08 01:41:50;;;;;;;;;;;;;;;10.77;100.00;93280.53;2581148;22;20004;-82
2023/05/08 01:43:41;;;;;;;5.22;3.72;;;;;;;10.76;100.00;93282.47;2596351;22;19935;-82
2023/05/08 01:45:00;;;;;;;4.30;4.00;;;;;;;10.71;100.00;93287.50;2600336;22;20008;-82
2023/05/08 01:46:16;;;;;;;5.63;3.47;;;;;;;10.70;100.00;93288.69;2580881;23;20024;-82
2023/05/08 01:47:29;;;;;;;4.30;3.90;;;;;;;10.69;100.00;93279.16;2576898;22;20007;-83
2023/05/08 01:48:45;;;;;;;4.95;4.15;;;;;;;10.74;100.00;93279.44;2573647;23;20005;-82
2023/05/08 01:50:16;;;;;;;4.10;3.80;;;;;;;10.71;100.00;93287.50;2573855;23;20464;-82
2023/05/08 01:51:59;;;;;;;4.30;3.90;;;;;;;10.74;100.00;93286.69;2571513;23;20118;-82
2023/05/08 01:53:12;;;;;;;3.70;3.38;;;;;;;10.76;100.00;93287.81;2586911;22;20474;-86
2023/05/08 01:54:21;;;;;;;6.05;3.80;;;;;;;10.78;100.00;93284.72;2597280;22;20016;-81
2023/05/08 01:55:30;;;;;;;4.95;4.22;;;;;;;10.77;100.00;93283.97;2606095;22;20048;-83
2023/05/08 01:56:33;;;;;;;5.43;4.30;;;;;;;10.79;100.00;93291.56;2583460;22;20463;-83
2023/05/08 01:57:39;;;;;;;11.95;4.10;;;;;;;10.80;100.00;93287.75;2582267;22;20004;-83
2023/05/08 01:59:08;;;;;;;9.00;4.30;;;;;;;10.80;100.00;93295.75;2569684;23;20339;-82
2023/05/08 02:00:10;;;;;;;5.63;3.63;;;;;;;10.81;100.00;93289.25;2587561;22;20004;-82
2023/05/08 02:01:56;;;;;;;4.00;3.70;;;;;;;10.80;100.00;93287.75;2585499;22;20037;-84
2023/05/08 02:03:12;;;;;;;3.58;3.28;;;;;;;10.82;100.00;93288.81;2590581;22;20040;-81
2023/05/08 02:04:18;;;;;;;4.03;3.40;;;;;;;10.84;100.00;93291.84;2583776;22;20000;-83
2023/05/08 02:05:31;;;;;;;5.45;3.58;;;;;;;10.81;100.00;93292.66;2582170;22;20363;-85
2023/05/08 02:06:41;;;;;;;4.30;3.72;;;;;;;10.83;100.00;93293.00;2580841;23;19996;-84
2023/05/08 02:08:03;;;;;;;5.95;3.47;;;;;;;10.80;100.00;93285.06;2582859;22;20004;-82
2023/05/08 02:09:15;;;;;;;4.30;3.40;;;;;;;10.78;100.00;93292.72;2572952;23;20134;-83
2023/05/08 02:11:02;;;;;;;7.55;3.25;;;;;;;10.82;100.00;93293.41;2572962;22;20447;-82
2023/05/08 02:12:27;;;;;;;3.15;2.95;;;;;;;10.86;100.00;93293.34;2590571;22;20000;-83
2023/05/08 02:13:46;;;;;;;3.50;3.20;;;;;;;10.75;100.00;93288.19;2571015;23;20316;-81
2023/05/08 02:15:18;;;;;;;5.50;3.47;;;;;;;10.74;100.00;93290.13;2575748;22;20036;-83
2023/05/08 02:16:20;;;;;;;3.38;3.08;;;;;;;10.72;100.00;93286.38;2587269;22;20003;-84
2023/05/08 02:17:51;;;;;;;3.63;3.28;;;;;;;10.78;100.00;93287.38;2581543;22;20004;-82
2023/05/08 02:21:09;;;;;;;;;;;;;;;10.65;100.00;93281.91;2129657;27;20624;-81
2023/05/08 02:24:44;;;;;;;3.47;3.17;;;;;;;10.67;100.00;93286.81;2110940;27;20051;-83
2023/05/08 02:25:54;;;;;;;3.55;3.25;;;;;;;10.66;100.00;93288.00;2120332;27;20416;-84
2023/05/08 02:27:30;;;;;;;3.42;3.13;;;;;;;10.69;100.00;93285.25;2121839;27;20126;-84
2023/05/08 02:29:03;;;;;;;4.25;3.45;;;;;;;10.75;100.00;93288.19;2119187;28;20031;-83
2023/05/08 02:30:07;;;;;;;7.50;4.15;;;;;;;10.77;100.00;93283.97;2118961;27;20038;-82
2023/05/08 02:31:10;;;;;;;10.48;4.47;;;;;;;10.69;100.00;93289.84;2115700;28;20073;-86
2023/05/08 02:32:12;;;;;;;4.82;3.53;;;;;;;10.69;100.00;93284.50;2098533;28;20068;-82
2023/05/08 02:33:15;;;;;;;4.63;4.20;;;;;;;10.69;100.00;93285.25;2111381;28;20054;-82
2023/05/08 02:34:17;;;;;;;4.63;3.70;;;;;;;10.69;100.00;93285.25;2120229;27;20029;-86
2023/05/08 02:35:19;;;;;;;4.82;4.40;;;;;;;10.66;100.00;93285.31;2127092;27;20026;-83
2023/05/08 02:36:38;;;;;;;4.65;4.25;;;;;;;10.66;100.00;93283.41;2114896;28;20019;-84
2023/05/08 02:37:44;;;;;;;4.70;4.30;;;;;;;10.64;100.00;93282.31;2107725;28;20106;-85
2023/05/08 02:38:50;;;;;;;7.28;4.60;;;;;;;10.63;100.00;93278.16;2110818;28;20078;-82
2023/05/08 02:39:55;;;;;;;5.38;4.78;;;;;;;10.66;100.00;93286.06;2108285;27;20036;-84
2023/05/08 02:41:01;;;;;;;5.55;4.88;;;;;;;10.65;100.00;93279.22;2116663;28;21033;-83
2023/05/08 02:42:02;;;;;;;6.75;4.90;;;;;;;10.68;100.00;93283.00;2119168;27;20023;-83
2023/05/08 02:43:06;;;;;;;5.57;4.75;;;;;;;10.62;100.00;93284.63;2115411;28;20056;-84
2023/05/08 02:44:08;;;;;;;5.13;4.55;;;;;;;10.61;100.00;93288.47;2102676;28;20452;-81
2023/05/08 02:45:11;;;;;;;5.57;4.38;;;;;;;10.59;100.00;93286.97;2111298;28;20035;-84
2023/05/08 02:46:12;;;;;;;10.05;4.72;;;;;;;10.56;100.00;93285.13;2121696;27;20471;-86
2023/05/08 02:47:51;;;;;;;5.72;4.53;;;;;;;10.54;100.00;93284.03;2123251;27;20030;-84
2023/05/08 02:49:23;;;;;;;5.97;4.82;;;;;;;10.53;100.00;93288.59;2097874;27;20524;-81
2023/05/08 02:50:45;;;;;;;5.45;4.90;;;;;;;10.50;100.00;93281.44;2110901;28;20375;-87
2023/05/08 02:51:57;;;;;;;6.55;5.28;;;;;;;10.46;100.00;93288.75;2107898;28;20515;-83
2023/05/08 02:53:08;;;;;;;7.88;4.43;;;;;;;10.53;100.00;93290.53;2115776;27;20249;-85
2023/05/08 02:54:16;;;;;;;6.63;5.05;;;;;;;10.47;100.00;93290.25;2106683;28;20266;-85
2023/05/08 02:55:39;;;;;;;5.03;4.53;;;;;;;10.45;100.00;93283.81;2110885;27;20423;-83
2023/05/08 02:56:52;;;;;;;10.57;5.00;;;;;;;10.42;100.00;93287.31;2118959;27;20030;-84
2023/05/08 02:58:17;;;;;;;6.57;4.30;;;;;;;10.38;100.00;93291.97;2121980;27;20498;-83
2023/05/08 02:59:26;;;;;;;5.93;4.47;;;;;;;10.44;100.00;93285.72;2122611;27;20152;-83
2023/05/08 03:00:42;;;;;;;4.88;4.47;;;;;;;10.38;100.00;93291.97;2109246;28;20024;-84
2023/05/08 03:02:19;;;;;;;4.75;4.35;;;;;;;10.44;100.00;93290.31;2112330;28;20016;-84
2023/05/08 03:03:27;;;;;;;5.18;4.50;;;;;;;10.37;100.00;93291.22;2119209;27;20027;-87
2023/05/08 03:04:35;;;;;;;4.95;4.40;;;;;;;10.40;100.00;93289.63;2116874;28;20473;-84
2023/05/08 03:05:39;;;;;;;4.65;4.25;;;;;;;10.32;100.00;93284.44;2103905;28;20023;-83
2023/05/08 03:06:47;;;;;;;;;;;;;;;10.35;100.00;93290.84;2107470;27;20032;-82
2023/05/08 03:07:51;;;;;;;7.75;4.53;;;;;;;10.36;100.00;93286.25;2107851;28;20276;-84
2023/05/08 03:08:59;;;;;;;5.40;4.85;;;;;;;10.29;100.00;93290.59;2098537;28;20074;-83
2023/05/08 03:10:04;;;;;;;5.38;4.88;;;;;;;10.24;100.00;93292.94;2107982;28;20020;-84
2023/05/08 03:11:20;;;;;;;5.65;4.97;;;;;;;10.24;100.00;93290.28;2111143;28;20520;-84
2023/05/08 03:12:25;;;;;;;5.53;5.03;;;;;;;10.24;100.00;93285.72;2102081;28;20021;-85
2023/05/08 03:13:30;;;;;;;7.82;4.40;;;;;;;10.25;100.00;93295.22;2094089;28;20033;-86
2023/05/08 03:14:36;;;;;;;5.70;4.80;;;;;;;10.24;100.00;93284.94;2094644;28;20056;-82
2023/05/08 03:15:44;;;;;;;4.82;4.43;;;;;;;10.25;100.00;93281.13;2100324;28;20030;-84
2023/05/08 03:16:56;;;;;;;5.50;5.00;;;;;;;10.22;100.00;93290.66;2097929;28;20032;-84
2023/05/08 03:18:10;;;;;;;7.45;4.78;;;;;;;10.19;100.00;93283.50;2109653;28;20028;-86
2023/05/08 03:19:34;;;;;;;5.97;4.32;;;;;;;10.18;100.00;93281.22;2105110;28;20023;-86
2023/05/08 03:20:40;;;;;;;4.97;4.30;;;;;;;10.15;100.00;93284.72;2106380;28;20539;-84
2023/05/08 03:23:51;;;;;;;4.45;4.10;;;;;;;10.16;100.00;93283.53;2116289;28;20734;-84
2023/05/08 03:24:57;;;;;;;4.47;4.03;;;;;;;10.11;100.00;93278.69;2111440;28;20111;-84
2023/05/08 03:25:59;;;;;;;4.28;3.95;;;;;;;10.04;100.00;93288.31;2102416;28;20423;-85
2023/05/08 03:27:10;;;;;;;8.65;4.50;;;;;;;10.08;100.00;93282.91;2105498;28;20299;-83
2023/05/08 03:28:14;;;;;;;4.78;4.18;;;;;;;10.05;100.00;93284.50;2120026;28;20467;-82
2023/05/08 03:29:17;;;;;;;4.60;4.20;;;;;;;10.01;100.00;93280.38;2109517;28;20031;-83
2023/05/08 03:30:20;;;;;;;6.25;4.15;;;;;;;10.02;100.00;93281.88;2102719;28;20024;-85
2023/05/08 03:31:44;;;;;;;4.70;4.30;;;;;;;10.04;100.00;93285.63;2115010;28;20443;-84
2023/05/08 03:32:47;;;;;;;4.38;4.05;;;;;;;10.06;100.00;93287.91;2109578;28;20578;-83
2023/05/08 03:33:53;;;;;;;6.97;4.65;;;;;;;9.99;100.00;93286.09;2114274;28;20022;-85
2023/05/08 03:34:58;;;;;;;5.00;4.28;;;;;;;10.00;100.00;93279.59;2100988;28;20058;-83
2023/05/08 03:35:59;;;;;;;5.00;4.43;;;;;;;10.02;100.00;93287.22;2093186;28;20354;-82
2023/05/08 03:37:00;;;;;;;4.90;4.50;;;;;;;10.05;100.00;93287.16;2089470;28;20028;-84
2023/05/08 03:38:02;;;;;;;5.97;3.83;;;;;;;10.05;100.00;93284.50;2109274;28;20042;-83
2023/05/08 03:39:04;;;;;;;4.00;3.60;;;;;;;10.02;100.00;93281.88;2113865;28;20019;-81
2023/05/08 03:40:07;;;;;;;4.22;3.92;;;;;;;9.97;100.00;93290.38;2113265;28;20023;-84
2023/05/08 03:41:10;;;;;;;4.35;3.97;;;;;;;9.99;100.00;93288.78;2102704;28;20027;-82
2023/05/08 03:42:20;;;;;;;4.35;3.72;;;;;;;9.99;100.00;93283.44;2090046;28;20526;-83
2023/05/08 03:43:23;;;;;;;3.78;3.50;;;;;;;10.01;100.00;93280.38;2096037;28;20088;-84
2023/05/08 03:44:27;;;;;;;5.43;3.53;;;;;;;9.94;100.00;93291.16;2100798;28;20025;-84
2023/05/08 03:45:30;;;;;;;4.55;3.35;;;;;;;9.97;100.00;93288.44;2093107;28;20024;-86
2023/05/08 03:46:45;;;;;;;3.70;3.40;;;;;;;9.97;100.00;93285.03;2091468;28;20678;-83
2023/05/08 03:47:50;;;;;;;3.40;3.20;;;;;;;9.96;100.00;93291.50;2097038;28;20016;-84
2023/05/08 03:48:53;;;;;;;8.25;3.40;;;;;;;10.00;100.00;93284.94;2092599;28;20031;-83
2023/05/08 03:49:56;;;;;;;7.22;3.90;;;;;;;9.99;100.00;93280.75;2102071;28;20523;-85
2023/05/08 03:51:03;;;;;;;6.63;3.50;;;;;;;9.97;100.00;93288.44;2105791;28;20046;-84
2023/05/08 03:52:04;;;;;;;3.65;3.20;;;;;;;9.96;100.00;93284.25;2102495;28;20119;-82
2023/05/08 03:53:05;;;;;;;3.75;3.22;;;;;;;9.99;100.00;93283.44;2109600;28;20110;-86
2023/05/08 03:54:07;;;;;;;3.22;3.03;;;;;;;9.99;100.00;93283.44;2097214;28;20501;-83
2023/05/08 03:55:08;;;;;;;4.03;3.45;;;;;;;9.97;100.00;93291.09;2085117;28;20033;-86
2023/05/08 03:56:09;;;;;;;10.60;3.10;;;;;;;9.98;100.00;93284.59;2093090;28;20073;-82
2023/05/08 03:57:11;;;;;;;7.78;3.50;;;;;;;9.98;100.00;93289.19;2104115;28;20158;-82
2023/05/08 03:58:35;;;;;;;3.42;3.20;;;;;;;9.91;100.00;93290.06;2096810;28;20024;-84
2023/05/08 04:00:02;;;;;;;4.75;2.92;;;;;;;9.96;100.00;93288.81;2091286;28;20032;-86
2023/05/08 04:01:15;;;;;;;3.30;3.10;;;;;;;9.95;100.00;93290.75;2101503;28;20058;-86
2023/05/08 04:02:19;;;;;;;4.18;3.15;;;;;;;9.94;100.00;93296.50;2097236;28;20092;-84
2023/05/08 04:03:41;;;;;;;3.45;3.10;;;;;;;9.95;100.00;93288.06;2092532;28;20025;-85
2023/05/08 04:04:46;;;;;;;3.53;2.92;;;;;;;9.98;100.00;93292.63;2094380;28;20031;-85
2023/05/08 04:06:01;;;;;;;3.63;3.08;;;;;;;9.95;100.00;93298.00;2102843;28;20113;-83
2023/05/08 04:07:12;;;;;;;3.10;2.75;;;;;;;9.94;100.00;93297.25;2097839;28;20032;-85
2023/05/08 04:08:21;;;;;;;3.22;3.00;;;;;;;9.95;100.00;93293.41;2084577;28;20028;-83
2023/05/08 04:09:44;;;;;;;4.70;3.47;;;;;;;9.98;100.00;93297.19;2088629;28;20078;-86
2023/05/08 04:10:52;;;;;;;5.20;3.08;;;;;;;9.96;100.00;93297.59;2087579;28;20107;-82
2023/05/08 04:12:13;;;;;;;6.65;3.25;;;;;;;9.97;100.00;93295.69;2085360;28;20033;-82
2023/05/08 04:13:20;;;;;;;3.58;3.28;;;;;;;9.92;100.00;93310.28;2090585;28;20033;-88
2023/05/08 04:14:26;;;;;;;3.58;3.28;;;;;;;9.97;100.00;93296.44;2101093;28;20032;-84
2023/05/08 04:15:34;;;;;;;13.05;7.90;;;;;;;9.99;100.00;93304.03;2106147;28;20023;-83
2023/05/08 04:17:02;;;;;;;6.50;6.00;;;;;;;9.99;100.00;93304.81;2110062;28;20065;-87
2023/05/08 04:18:18;;;;;;;7.82;6.93;;;;;;;10.00;100.00;93303.63;2114710;28;20031;-82
2023/05/08 04:19:38;;;;;;;8.70;8.10;;;;;;;10.05;100.00;93303.19;2119080;28;20034;-86
2023/05/08 04:20:48;;;;;;;;;;;;;;;10.08;100.00;93297.00;2103109;28;20067;-84
2023/05/08 04:22:12;;;;;;;13.65;12.55;;;;;;;10.12;100.00;93312.22;2099358;28;19920;-85
2023/05/08 04:23:26;;;;;;;12.13;11.13;;;;;;;10.10;100.00;93304.63;2099277;28;20500;-84
2023/05/08 04:24:38;;;;;;;7.07;6.57;;;;;;;10.11;100.00;93306.13;2107808;28;20504;-84
2023/05/08 04:25:50;;;;;;;6.97;6.43;;;;;;;10.15;100.00;93311.44;2111764;28;20084;-87
2023/05/08 04:27:03;;;;;;;5.38;4.70;;;;;;;10.20;100.00;93314.38;2097308;28;20032;-82
2023/05/08 04:28:10;;;;;;;;;;;;;;;10.21;100.00;93309.78;2092366;28;20090;-83
2023/05/08 04:29:23;;;;;;;9.30;4.57;;;;;;;10.20;100.00;93306.38;2090973;28;20389;-83
2023/05/08 04:30:33;;;;;;;3.80;3.50;;;;;;;10.14;100.00;93310.69;2102662;28;20024;-82
2023/05/08 04:31:52;;;;;;;3.60;3.40;;;;;;;10.16;100.00;93315.59;2107858;28;20558;-83
2023/05/08 04:33:01;;;;;;;4.28;3.50;;;;;;;10.20;100.00;93313.63;2102127;28;20030;-83
2023/05/08 04:34:10;;;;;;;3.83;3.53;;;;;;;10.17;100.00;93309.84;2106087;28;20437;-86
2023/05/08 04:35:19;;;;;;;3.45;3.25;;;;;;;10.25;100.00;93311.25;2105908;28;20036;-85
2023/05/08 04:36:29;;;;;;;5.60;5.20;;;;;;;10.25;100.00;93310.50;2096544;28;20107;-84
2023/05/08 04:37:44;;;;;;;9.30;4.88;;;;;;;10.27;100.00;93316.19;2104004;28;20476;-82
2023/05/08 04:38:51;;;;;;;18.48;15.52;;;;;;;10.27;100.00;93319.63;2097424;28;20020;-82
2023/05/08 04:40:04;;;;;;;34.60;31.25;;;;;;;10.29;100.00;93313.88;2096464;28;20043;-83
2023/05/08 04:41:17;;;;;;;21.35;19.65;;;;;;;10.30;100.00;93312.72;2106437;28;20126;-85
2023/05/08 04:42:29;;;;;;;18.77;16.92;;;;;;;10.30;100.00;93312.72;2105553;28;20020;-82
2023/05/08 04:43:38;;;;;;;;;;;;;;;10.33;100.00;93315.31;2105694;28;20125;-81
2023/05/08 04:44:47;;;;;;;15.63;14.45;;;;;;;10.29;100.00;93317.28;2095457;28;20717;-82
2023/05/08 04:45:57;;;;;;;11.25;10.45;;;;;;;10.34;100.00;93310.72;2092198;28;20563;-83
2023/05/08 04:47:06;;;;;;;8.32;7.63;;;;;;;10.34;100.00;93316.06;2098984;28;20024;-84
2023/05/08 04:48:13;;;;;;;5.85;5.38;;;;;;;10.34;100.00;93321.41;2104286;28;20562;-86
2023/05/08 04:49:22;;;;;;;6.40;5.72;;;;;;;10.32;100.00;93318.41;2098547;28;20024;-85
2023/05/08 04:50:30;;;;;;;3.30;3.05;;;;;;;10.34;100.00;93322.16;2091986;28;20444;-84
2023/05/08 04:51:38;;;;;;;3.28;3.00;;;;;;;10.37;100.00;93317.94;2099839;28;20916;-84
2023/05/08 04:52:45;;;;;;;3.55;3.33;;;;;;;10.40;100.00;93327.03;2095678;28;20032;-82
2023/05/08 04:53:52;;;;;;;3.38;3.00;;;;;;;10.40;100.00;93327.78;2103010;28;20035;-86
2023/05/08 04:54:59;;;;;;;4.05;3.47;;;;;;;10.34;100.00;93330.19;2105130;28;20481;-86
2023/05/08 04:56:07;;;;;;;3.10;2.90;;;;;;;10.31;100.00;93331.00;2092750;28;20106;-82
2023/05/08 04:57:19;;;;;;;3.75;3.22;;;;;;;10.33;100.00;93325.25;2094666;28;20078;-85
2023/05/08 04:58:28;;;;;;;3.13;2.92;;;;;;;10.32;100.00;93321.84;2108798;28;20024;-83
2023/05/08 04:59:36;;;;;;;3.40;3.10;;;;;;;10.34;100.00;93322.16;2101105;28;20496;-84
2023/05/08 05:00:44;;;;;;;3.47;3.28;;;;;;;10.36;100.00;93321.00;2101580;28;20020;-85
2023/05/08 05:01:51;;;;;;;2.95;2.75;;;;;;;10.38;100.00;93324.03;2108298;28;20055;-85
2023/05/08 05:03:00;;;;;;;3.08;2.78;;;;;;;10.39;100.00;93326.28;2107310;28;20172;-86
2023/05/08 05:04:10;;;;;;;3.63;3.25;;;;;;;10.41;100.00;93323.97;2106976;28;20057;-84
2023/05/08 05:05:21;;;;;;;3.50;3.13;;;;;;;10.41;100.00;93326.66;2108301;27;20032;-85
2023/05/08 05:06:30;;;;;;;3.25;3.05;;;;;;;10.40;100.00;93321.69;2104974;28;20036;-82
2023/05/08 05:07:38;;;;;;;3.38;3.05;;;;;;;10.42;100.00;93324.72;2101407;28;20332;-86
2023/05/08 05:08:48;;;;;;;3.33;3.03;;;;;;;10.40;100.00;93322.44;2099173;28;20027;-83
2023/05/08 05:09:59;;;;;;;2.90;2.70;;;;;;;10.42;100.00;93338.09;2099312;28;20022;-86
2023/05/08 05:11:07;;;;;;;3.65;3.35;;;;;;;10.41;100.00;93323.97;2109981;27;20111;-82
2023/05/08 05:12:15;;;;;;;3.47;3.22;;;;;;;10.39;100.00;93326.28;2106588;28;20491;-83
2023/05/08 05:13:24;;;;;;;5.47;2.95;;;;;;;10.37;100.00;93323.28;2090246;28;20545;-83
2023/05/08 05:14:34;;;;;;;3.38;3.17;;;;;;;10.35;100.00;93330.94;2104001;28;20043;-85
2023/05/08 05:15:42;;;;;;;4.90;2.80;;;;;;;10.40;100.00;93335.81;2110672;28;20030;-83
2023/05/08 05:17:03;;;;;;;3.90;3.60;;;;;;;10.41;100.00;93328.56;2111226;28;21093;-84
2023/05/08 05:18:04;;;;;;;10.13;3.30;;;;;;;10.41;100.00;93332.00;2107091;28;20027;-82
2023/05/08 05:19:05;;;;;;;4.60;2.83;;;;;;;10.42;100.00;93322.81;2093239;28;20491;-83
2023/05/08 05:20:07;;;;;;;3.92;3.28;;;;;;;10.44;100.00;93327.72;2090326;28;20032;-83
2023/05/08 05:21:10;;;;;;;3.17;2.97;;;;;;;10.40;100.00;93335.81;2102393;28;20035;-82
2023/05/08 05:22:15;;;;;;;3.20;2.90;;;;;;;10.45;100.00;93343.38;2100852;28;20038;-87
2023/05/08 05:23:17;;;;;;;4.97;3.20;;;;;;;10.46;100.00;93334.19;2087734;28;20508;-84
2023/05/08 05:24:19;;;;;;;4.10;3.38;;;;;;;10.42;100.00;93340.75;2102575;28;20028;-84
2023/05/08 05:25:20;;;;;;;3.53;3.28;;;;;;;10.44;100.00;93341.09;2110413;28;20499;-82
2023/05/08 05:26:22;;;;;;;3.42;3.10;;;;;;;10.48;100.00;93344.47;2100174;28;20384;-82
2023/05/08 05:27:23;;;;;;;3.35;3.10;;;;;;;10.53;100.00;93349.31;2090246;28;20059;-83
2023/05/08 05:28:25;;;;;;;3.78;3.05;;;;;;;10.54;100.00;93335.56;2092486;28;20036;-83
2023/05/08 05:29:26;;;;;;;3.30;3.10;;;;;;;10.53;100.00;93341.31;2094145;28;20072;-87
2023/05/08 05:30:32;;;;;;;3.58;3.03;;;;;;;10.56;100.00;93341.25;2096293;28;20028;-82
2023/05/08 05:31:34;;;;;;;6.57;3.28;;;;;;;10.51;100.00;93338.31;2096609;28;20079;-83
2023/05/08 05:32:36;;;;;;;4.70;3.20;;;;;;;10.57;100.00;93337.41;2095035;28;20012;-83
2023/05/08 05:33:41;;;;;;;4.85;3.38;;;;;;;10.64;100.00;93347.22;2090825;28;20448;-86
2023/05/08 05:34:44;;;;;;;4.57;3.42;;;;;;;10.71;100.00;93340.97;2097532;28;20051;-84
2023/05/08 05:35:45;;;;;;;4.57;3.50;;;;;;;10.77;100.00;93344.72;2097244;28;20459;-86
2023/05/08 05:37:05;;;;;;;3.53;3.25;;;;;;;10.77;100.00;93340.09;2113406;28;20027;-84
2023/05/08 05:38:06;;;;;;;3.58;3.28;;;;;;;10.72;100.00;93347.84;2105253;28;20028;-84
2023/05/08 05:39:07;;;;;;;8.70;3.97;;;;;;;10.75;100.00;93339.00;2089304;28;20505;-83
2023/05/08 05:40:09;;;;;;;5.75;3.20;;;;;;;10.86;100.00;93349.50;2087903;28;20377;-82
2023/05/08 05:41:10;;;;;;;6.93;3.85;;;;;;;10.88;100.00;93347.91;2082982;28;20478;-84